Aeroporto :
LOGIN :

Iscrizione | Disclaimer

   EN    FR    IT 

 










Sommario :    VFR   VFR Marginale   IFR   IFR Intensivo   IFR Molto Intensivo
Visibilità : 
Base nubi : 
>= 8 km
>= 3000ft
5 / 8 km
1000 / 3000 ft
1500m / 5 km
500 / 1000 ft
800 / 1500m
200 / 500 ft
< 800m
< 200 ft
Simboli :   Temporali  Nebbia  Neve Forte  Precipitazioni Forti  Vento > 20 kt
SIGMETs :   Varie  Temporali  Ghiacco  Turbolenza  Onda orograficha  Ceneri Vulcaniche






- Altitudine del aeroporto : 1363 ft


ETIC - Grafenwohr Army Air Field

ULTIMO METAR :
  • 190455Z AUTO 00000KT 9999 CLR 15/13 A3015 RMK AO2 SLP208 T01520130 $

METARs OBSOLETI :
  • 190355Z AUTO 00000KT 9999 CLR 14/13 A3014 RMK AO2 SLP204 T01390126 $
  • 190255Z AUTO 00000KT 9999 CLR 14/13 A3014 RMK AO2 SLP204 T01400129 56008 $
  • 190155Z AUTO 00000KT 9999 CLR 14/13 A3015 RMK AO2 SLP207 T01410125 $
  • 190055Z AUTO 00000KT 9999 CLR 15/14 A3016 RMK AO2 SLP210 T01520136 $

TAF TAF ETIC
Valido dal 18 a 18 ore il 20 a 00 ore UTC


181800Z 1818/1924 06006KT 9999 FEW060 FEW200 QNH3017INS
BECMG 1908/1909 10006KT 9999 SCT035 BKN050 QNH3007INS
BECMG 1921/1922 08006KT 9999 FEW035 SCT180 QNH3004INS TX27/1915Z TN15/1903Z LAST NO AMDS AFT 1821 NEXT 1906



MetMap, La meteo Aeronautica in un colpo d'occhio ! - Copyright ORBIFLY Dicembre 2007 - Disclaimer

ORBIFLY MET'MAP TEAM :

Programmazione e sviluppo : Alexandra Zaïnal
Concezione : Baudouin d'Aumeries
Supporto tecnico e logistico : Manuel Goepfert
Aiuto : Marc-Olivier Méhu
Aiuto per la traduzione : Arnaldo La Scala




FONTI E CREDITI :

   NOAA